createdAt,value
2023-03-26T00:00:58.530Z,12.71
2023-03-26T00:03:31.873Z,12.75
2023-03-26T00:06:13.587Z,12.76
2023-03-26T00:08:47.067Z,12.76
2023-03-26T00:11:21.722Z,12.78
2023-03-26T00:13:56.836Z,12.80
2023-03-26T00:16:32.291Z,12.82
2023-03-26T00:19:04.745Z,12.82
2023-03-26T00:21:38.173Z,12.82
2023-03-26T00:24:16.437Z,12.83
2023-03-26T00:26:52.279Z,12.83
2023-03-26T00:29:24.768Z,12.85
2023-03-26T00:31:57.048Z,12.87
2023-03-26T00:34:29.912Z,12.85
2023-03-26T00:37:03.078Z,12.86
2023-03-26T00:39:37.483Z,12.88
2023-03-26T00:42:10.150Z,12.89
2023-03-26T00:44:42.582Z,12.90
2023-03-26T00:47:16.092Z,12.91
2023-03-26T00:49:48.983Z,12.91
2023-03-26T00:52:22.176Z,12.91
2023-03-26T00:54:55.435Z,12.91
2023-03-26T00:57:35.858Z,12.91
2023-03-26T01:00:11.379Z,12.95
2023-03-26T01:02:45.476Z,12.95
2023-03-26T01:05:43.069Z,12.93
2023-03-26T01:08:32.557Z,12.90
2023-03-26T01:11:12.439Z,12.89
2023-03-26T01:14:01.677Z,12.85
2023-03-26T01:16:50.167Z,12.81
2023-03-26T01:20:00.427Z,12.79
2023-03-26T01:22:34.673Z,12.75
2023-03-26T01:25:09.727Z,12.78
2023-03-26T01:27:56.609Z,12.76
2023-03-26T01:31:00.241Z,12.76
2023-03-26T01:33:40.271Z,12.75
2023-03-26T01:36:38.660Z,12.73
2023-03-26T01:39:18.028Z,12.71
2023-03-26T01:41:54.984Z,12.73
2023-03-26T01:44:44.998Z,12.73
2023-03-26T01:47:17.646Z,12.70
2023-03-26T01:49:50.580Z,12.66
2023-03-26T01:52:26.325Z,12.63
2023-03-26T01:54:59.876Z,12.61
2023-03-26T01:58:03.505Z,12.61
2023-03-26T02:00:56.958Z,12.58
2023-03-26T02:03:45.191Z,12.57
2023-03-26T02:06:43.064Z,12.52
2023-03-26T02:09:22.540Z,12.41
2023-03-26T02:11:55.441Z,12.35
2023-03-26T02:14:31.976Z,12.32
2023-03-26T02:17:04.415Z,12.32
2023-03-26T02:19:40.783Z,12.29
2023-03-26T02:22:15.779Z,12.27
2023-03-26T02:24:50.031Z,12.23
2023-03-26T02:27:22.987Z,12.17
2023-03-26T02:29:55.912Z,12.14
2023-03-26T02:32:29.516Z,12.05
2023-03-26T02:35:03.113Z,11.92
2023-03-26T02:37:36.315Z,11.81
2023-03-26T02:40:11.865Z,11.75
2023-03-26T02:42:47.500Z,11.65
2023-03-26T02:45:20.488Z,11.58
2023-03-26T02:48:11.781Z,11.43
2023-03-26T02:50:50.333Z,11.33
2023-03-26T02:53:26.450Z,11.28
2023-03-26T02:56:01.330Z,11.24
2023-03-26T02:58:35.955Z,11.23
2023-03-26T03:01:09.310Z,11.20
2023-03-26T03:03:44.736Z,11.19
2023-03-26T03:06:19.275Z,11.19
2023-03-26T03:08:55.733Z,11.18
2023-03-26T03:12:02.069Z,11.19
2023-03-26T03:14:36.738Z,11.22
2023-03-26T03:17:09.364Z,11.24
2023-03-26T03:19:41.953Z,11.20
2023-03-26T03:22:15.136Z,11.19
2023-03-26T03:24:48.500Z,11.21
2023-03-26T03:27:22.769Z,11.28
2023-03-26T03:29:59.265Z,11.36
2023-03-26T03:32:50.799Z,11.34
2023-03-26T03:35:25.741Z,11.32
2023-03-26T03:38:00.537Z,11.32
2023-03-26T03:40:34.066Z,11.30
2023-03-26T03:43:06.658Z,11.28
2023-03-26T03:45:40.738Z,11.28
2023-03-26T03:48:15.395Z,11.16
2023-03-26T03:50:50.176Z,11.07
2023-03-26T03:53:30.873Z,10.98
2023-03-26T03:56:06.523Z,10.98
2023-03-26T03:58:41.257Z,10.90
2023-03-26T04:01:17.073Z,10.81
2023-03-26T04:03:58.088Z,10.72
2023-03-26T04:06:32.655Z,10.68
2023-03-26T04:09:05.521Z,10.69
2023-03-26T04:11:39.079Z,10.67
2023-03-26T04:14:17.690Z,10.55
2023-03-26T04:16:55.061Z,10.51
2023-03-26T04:19:28.851Z,10.47
2023-03-26T04:22:02.432Z,10.43
2023-03-26T04:24:41.109Z,10.35
2023-03-26T04:27:33.109Z,10.31
2023-03-26T04:30:15.860Z,10.36
2023-03-26T04:32:50.207Z,10.38
2023-03-26T04:35:23.934Z,10.48
2023-03-26T04:37:58.745Z,10.58
2023-03-26T04:43:19.283Z,10.62
2023-03-26T04:46:11.166Z,10.63
2023-03-26T04:48:46.317Z,10.69
2023-03-26T04:51:22.034Z,10.73
2023-03-26T04:54:01.205Z,10.78
2023-03-26T04:57:00.243Z,10.83
2023-03-26T04:59:37.384Z,10.82
2023-03-26T05:02:14.236Z,10.70
2023-03-26T05:05:00.197Z,10.67
2023-03-26T05:07:34.024Z,10.68
2023-03-26T05:10:08.562Z,10.68
2023-03-26T05:12:44.372Z,10.71
2023-03-26T05:15:21.757Z,10.70
2023-03-26T05:18:03.861Z,10.72
2023-03-26T05:20:38.947Z,10.64
2023-03-26T05:23:13.059Z,10.59
2023-03-26T05:25:48.015Z,10.60
2023-03-26T05:28:24.050Z,10.56
2023-03-26T05:31:02.752Z,10.58
2023-03-26T05:33:37.704Z,10.57
2023-03-26T05:36:21.277Z,10.68
2023-03-26T05:38:56.749Z,10.79
2023-03-26T05:41:37.342Z,10.86
2023-03-26T05:44:10.435Z,10.88
2023-03-26T05:46:43.636Z,10.83
2023-03-26T05:49:18.088Z,10.80
2023-03-26T05:51:52.740Z,10.84
2023-03-26T05:54:44.873Z,10.90
2023-03-26T05:57:36.253Z,10.99
2023-03-26T06:00:27.828Z,11.03
2023-03-26T06:03:01.673Z,11.00
2023-03-26T06:05:54.357Z,10.98
2023-03-26T06:09:01.024Z,10.91
2023-03-26T06:11:25.836Z,11.05
2023-03-26T06:13:59.471Z,11.45
2023-03-26T06:16:32.823Z,11.93
2023-03-26T06:19:07.911Z,12.36
2023-03-26T06:21:46.756Z,12.79
2023-03-26T06:27:30.748Z,13.47
2023-03-26T06:30:21.825Z,13.93
2023-03-26T06:33:12.096Z,14.34
2023-03-26T06:35:47.586Z,14.60
2023-03-26T06:38:20.785Z,14.65
2023-03-26T06:40:54.911Z,14.83
2023-03-26T06:43:32.680Z,15.18
2023-03-26T06:46:21.512Z,15.58
2023-03-26T06:49:02.069Z,15.98
2023-03-26T06:51:52.799Z,16.39
2023-03-26T06:54:31.326Z,16.78
2023-03-26T06:57:11.955Z,17.12
2023-03-26T07:00:02.461Z,17.30
2023-03-26T07:02:53.661Z,17.36
2023-03-26T07:05:44.082Z,17.42
2023-03-26T07:08:35.204Z,17.61
2023-03-26T07:11:25.544Z,17.91
2023-03-26T07:14:16.603Z,18.09
2023-03-26T07:16:54.099Z,18.11
2023-03-26T07:19:47.243Z,18.00
2023-03-26T07:22:43.821Z,18.02
2023-03-26T07:25:21.477Z,18.07
2023-03-26T07:28:20.686Z,18.02
2023-03-26T07:31:43.350Z,17.99
2023-03-26T07:34:56.482Z,17.91
2023-03-26T07:37:53.363Z,18.22
2023-03-26T07:41:31.677Z,18.42
2023-03-26T07:44:48.605Z,18.10
2023-03-26T07:47:36.069Z,17.59
2023-03-26T07:50:22.195Z,17.07
2023-03-26T07:53:09.994Z,16.62
2023-03-26T07:56:30.874Z,16.19
2023-03-26T07:59:31.339Z,16.09
2023-03-26T08:02:41.589Z,15.97
2023-03-26T08:06:03.539Z,15.82
2023-03-26T08:09:10.066Z,15.73
2023-03-26T08:12:27.818Z,15.85
2023-03-26T08:15:34.860Z,15.86
2023-03-26T08:18:49.394Z,16.04
2023-03-26T08:21:39.889Z,16.10
2023-03-26T08:25:10.584Z,15.92
2023-03-26T08:28:08.632Z,15.66
2023-03-26T08:30:42.022Z,15.42
2023-03-26T08:33:20.843Z,15.12
2023-03-26T08:35:53.979Z,14.96
2023-03-26T08:38:26.869Z,15.20
2023-03-26T08:41:15.668Z,15.58
2023-03-26T08:44:17.122Z,15.92
2023-03-26T08:47:30.927Z,16.26
2023-03-26T08:50:43.093Z,16.37
2023-03-26T08:53:44.934Z,16.53
2023-03-26T08:56:35.283Z,16.80
2023-03-26T08:59:32.813Z,17.16
2023-03-26T09:02:50.771Z,17.55
2023-03-26T09:06:01.448Z,17.64
2023-03-26T09:09:00.453Z,17.40
2023-03-26T09:11:55.092Z,16.63
2023-03-26T09:14:53.653Z,16.03
2023-03-26T09:17:43.050Z,15.71
2023-03-26T09:20:39.271Z,15.70
2023-03-26T09:23:48.685Z,15.80
2023-03-26T09:26:51.454Z,15.87
2023-03-26T09:29:40.721Z,16.06
2023-03-26T09:32:58.754Z,16.41
2023-03-26T09:36:12.278Z,16.80
2023-03-26T09:39:13.219Z,17.06
2023-03-26T09:42:13.127Z,17.16
2023-03-26T09:45:22.799Z,17.11
2023-03-26T09:48:09.292Z,16.93
2023-03-26T09:54:35.461Z,16.31
2023-03-26T09:57:29.279Z,15.94
2023-03-26T10:00:43.868Z,15.71
2023-03-26T10:03:42.729Z,15.55
2023-03-26T10:06:44.750Z,15.50
2023-03-26T10:09:27.972Z,15.48
2023-03-26T10:12:23.329Z,15.34
2023-03-26T10:15:29.600Z,15.33
2023-03-26T10:18:34.566Z,15.34
2023-03-26T10:21:31.755Z,15.25
2023-03-26T10:24:34.774Z,15.04
2023-03-26T10:27:13.638Z,14.77
2023-03-26T10:30:18.221Z,14.75
2023-03-26T10:33:01.912Z,14.71
2023-03-26T10:36:14.348Z,14.62
2023-03-26T10:39:03.582Z,14.53
2023-03-26T10:42:14.478Z,14.30
2023-03-26T10:45:26.275Z,14.24
2023-03-26T10:48:31.391Z,14.30
2023-03-26T10:51:50.717Z,14.24
2023-03-26T10:54:45.852Z,13.99
2023-03-26T10:57:26.695Z,13.83
2023-03-26T11:00:23.514Z,13.75
2023-03-26T11:03:33.216Z,13.82
2023-03-26T11:06:46.023Z,14.10
2023-03-26T11:09:47.571Z,14.37
2023-03-26T11:12:57.300Z,14.71
2023-03-26T11:15:51.746Z,14.79
2023-03-26T11:18:49.103Z,15.03
2023-03-26T11:21:48.054Z,15.34
2023-03-26T11:25:05.084Z,15.63
2023-03-26T11:28:00.120Z,15.89
2023-03-26T11:31:17.370Z,16.06
2023-03-26T11:33:56.905Z,15.97
2023-03-26T11:36:32.923Z,15.60
2023-03-26T11:39:09.877Z,15.42
2023-03-26T11:41:42.493Z,15.19
2023-03-26T11:44:32.469Z,15.12
2023-03-26T11:47:10.460Z,15.16
2023-03-26T11:49:45.522Z,15.23
2023-03-26T11:52:18.884Z,15.30
2023-03-26T11:54:51.797Z,15.39
2023-03-26T11:57:27.921Z,15.42
2023-03-26T12:00:17.812Z,15.45
2023-03-26T12:02:51.083Z,15.45
2023-03-26T12:05:27.519Z,15.45
2023-03-26T12:08:11.403Z,15.55
2023-03-26T12:10:44.092Z,15.59
2023-03-26T12:13:36.706Z,15.62
2023-03-26T12:16:34.685Z,15.68
2023-03-26T12:19:12.046Z,15.81
2023-03-26T12:21:52.863Z,15.95
2023-03-26T12:24:36.452Z,16.23
2023-03-26T12:27:30.004Z,16.46
2023-03-26T12:30:27.581Z,16.72
2023-03-26T12:33:04.402Z,16.90
2023-03-26T12:35:37.288Z,16.90
2023-03-26T12:38:34.175Z,16.80
2023-03-26T12:44:43.391Z,16.75
2023-03-26T12:44:55.536Z,16.66
2023-03-26T12:47:58.751Z,16.34
2023-03-26T12:49:11.652Z,16.04
2023-03-26T12:52:17.923Z,15.79
2023-03-26T12:55:04.046Z,15.71
2023-03-26T12:57:41.375Z,15.54
2023-03-26T13:00:44.761Z,15.65
2023-03-26T13:04:11.212Z,15.85
2023-03-26T13:07:00.674Z,16.06
2023-03-26T13:09:44.609Z,16.09
2023-03-26T13:12:44.072Z,16.23
2023-03-26T13:15:52.649Z,16.41
2023-03-26T13:18:51.391Z,16.57
2023-03-26T13:21:50.292Z,16.46
2023-03-26T13:24:46.084Z,16.28
2023-03-26T13:27:36.699Z,16.13
2023-03-26T13:30:35.628Z,16.02
2023-03-26T13:33:28.142Z,16.00
2023-03-26T13:36:22.627Z,16.00
2023-03-26T13:39:13.214Z,15.92
2023-03-26T13:41:59.715Z,15.75
2023-03-26T13:45:04.661Z,15.50
2023-03-26T13:47:32.096Z,15.34
2023-03-26T13:50:30.105Z,15.35
2023-03-26T13:53:11.017Z,15.37
2023-03-26T13:55:50.548Z,15.30
2023-03-26T13:58:39.136Z,15.30
2023-03-26T14:01:32.027Z,15.40
2023-03-26T14:04:19.894Z,15.51
2023-03-26T14:07:06.622Z,15.65
2023-03-26T14:09:58.771Z,15.74
2023-03-26T14:13:01.744Z,15.74
2023-03-26T14:15:50.683Z,15.64
2023-03-26T14:18:45.243Z,15.50
2023-03-26T14:21:37.314Z,15.36
2023-03-26T14:24:32.568Z,15.29
2023-03-26T14:27:35.788Z,15.20
2023-03-26T14:30:53.632Z,15.05
2023-03-26T14:33:34.513Z,14.91
2023-03-26T14:36:37.850Z,14.78
2023-03-26T14:39:29.334Z,14.72
2023-03-26T14:42:15.776Z,14.63
2023-03-26T14:45:10.768Z,14.67
2023-03-26T14:48:18.048Z,14.68
2023-03-26T14:51:27.211Z,14.53
2023-03-26T14:54:07.258Z,14.37
2023-03-26T14:57:11.472Z,14.29
2023-03-26T15:00:11.595Z,14.15
2023-03-26T15:03:15.116Z,14.02
2023-03-26T15:05:53.190Z,14.05
2023-03-26T15:08:49.030Z,14.13
2023-03-26T15:11:51.079Z,14.15
2023-03-26T15:14:53.747Z,14.09
2023-03-26T15:17:54.744Z,14.09
2023-03-26T15:20:59.412Z,14.04
2023-03-26T15:24:16.261Z,14.00
2023-03-26T15:27:31.288Z,13.89
2023-03-26T15:30:20.230Z,13.86
2023-03-26T15:33:29.316Z,13.79
2023-03-26T15:36:24.863Z,13.71
2023-03-26T15:39:15.291Z,13.58
2023-03-26T15:42:16.059Z,13.52
2023-03-26T15:45:26.879Z,13.47
2023-03-26T15:48:15.920Z,13.42
2023-03-26T15:51:28.539Z,13.50
2023-03-26T15:54:08.882Z,13.52
2023-03-26T15:56:58.404Z,13.41
2023-03-26T15:59:59.790Z,13.40
2023-03-26T16:02:48.272Z,13.36
2023-03-26T16:05:33.825Z,13.30
2023-03-26T16:08:31.660Z,13.30
2023-03-26T16:11:06.788Z,13.26
2023-03-26T16:13:44.638Z,13.21
2023-03-26T16:16:24.130Z,13.16
2023-03-26T16:19:01.417Z,13.09
2023-03-26T16:21:40.341Z,13.01
2023-03-26T16:24:20.796Z,13.00
2023-03-26T16:27:06.397Z,12.96
2023-03-26T16:30:20.713Z,12.92
2023-03-26T16:33:15.712Z,12.87
2023-03-26T16:36:08.519Z,12.81
2023-03-26T16:39:03.820Z,12.67
2023-03-26T16:45:03.067Z,12.63
2023-03-26T16:51:27.897Z,12.56
2023-03-26T16:54:32.360Z,12.59
2023-03-26T16:57:38.682Z,12.58
2023-03-26T17:00:28.696Z,12.55
2023-03-26T17:06:53.445Z,12.53
2023-03-26T17:10:02.610Z,12.60
2023-03-26T17:13:01.841Z,12.56
2023-03-26T17:16:01.406Z,12.51
2023-03-26T17:19:04.485Z,12.44
2023-03-26T17:22:03.862Z,12.39
2023-03-26T17:24:49.996Z,12.33
2023-03-26T17:28:09.427Z,12.31
2023-03-26T17:31:04.574Z,12.28
2023-03-26T17:33:39.761Z,12.30
2023-03-26T17:36:24.277Z,12.30
2023-03-26T17:39:00.993Z,12.27
2023-03-26T17:42:10.381Z,12.23
2023-03-26T17:44:56.758Z,12.15
2023-03-26T17:47:48.480Z,12.06
2023-03-26T17:50:46.406Z,12.03
2023-03-26T17:53:31.115Z,11.92
2023-03-26T17:56:07.396Z,11.84
2023-03-26T17:58:48.779Z,11.80
2023-03-26T18:01:37.381Z,11.72
2023-03-26T18:04:20.441Z,11.62
2023-03-26T18:07:29.805Z,11.53
2023-03-26T18:10:40.613Z,11.45
2023-03-26T18:13:43.786Z,11.43
2023-03-26T18:16:24.560Z,11.39
2023-03-26T18:19:03.097Z,11.34
2023-03-26T18:21:40.420Z,11.29
2023-03-26T18:24:31.559Z,11.22
2023-03-26T18:27:12.324Z,11.18
2023-03-26T18:30:03.543Z,11.14
2023-03-26T18:35:23.282Z,10.97
2023-03-26T18:38:36.439Z,10.97
2023-03-26T18:43:44.525Z,10.97
2023-03-26T18:46:16.851Z,10.96
2023-03-26T18:48:50.761Z,10.98
2023-03-26T18:51:23.549Z,10.97
2023-03-26T18:53:59.611Z,11.00
2023-03-26T18:56:38.464Z,11.02
2023-03-26T18:59:32.219Z,10.99
2023-03-26T19:02:31.382Z,10.93
2023-03-26T19:05:04.274Z,10.87
2023-03-26T19:07:38.082Z,10.80
2023-03-26T19:13:03.637Z,10.68
2023-03-26T19:15:36.719Z,10.65
2023-03-26T19:18:12.890Z,10.59
2023-03-26T19:20:59.665Z,10.57
2023-03-26T19:23:39.425Z,10.54
2023-03-26T19:26:12.170Z,10.51
2023-03-26T19:28:53.553Z,10.48
2023-03-26T19:31:30.472Z,10.49
2023-03-26T19:34:35.064Z,10.52
2023-03-26T19:37:30.283Z,10.53
2023-03-26T19:40:06.928Z,10.49
2023-03-26T19:42:43.830Z,10.43
2023-03-26T19:45:21.797Z,10.35
2023-03-26T19:48:03.946Z,10.31
2023-03-26T19:50:32.219Z,10.28
2023-03-26T19:53:23.328Z,10.25
2023-03-26T19:56:15.431Z,10.22
2023-03-26T19:58:48.819Z,10.21
2023-03-26T20:01:27.373Z,10.14
2023-03-26T20:04:06.812Z,10.14
2023-03-26T20:06:43.698Z,10.13
2023-03-26T20:09:16.579Z,10.12
2023-03-26T20:11:51.262Z,10.13
2023-03-26T20:14:26.406Z,10.11
2023-03-26T20:16:59.326Z,10.06
2023-03-26T20:19:32.253Z,10.04
2023-03-26T20:22:05.962Z,10.01
2023-03-26T20:24:40.244Z,9.99
2023-03-26T20:27:14.365Z,9.97
2023-03-26T20:29:47.752Z,9.94
2023-03-26T20:32:26.302Z,9.88
2023-03-26T20:34:57.847Z,9.83
2023-03-26T20:37:30.626Z,9.78
2023-03-26T20:40:04.642Z,9.73
2023-03-26T20:42:37.446Z,9.70
2023-03-26T20:45:26.546Z,9.64
2023-03-26T20:47:59.696Z,9.57
2023-03-26T20:50:35.788Z,9.52
2023-03-26T20:53:07.189Z,9.47
2023-03-26T20:55:41.538Z,9.44
2023-03-26T20:58:32.039Z,9.40
2023-03-26T21:01:02.490Z,9.38
2023-03-26T21:03:35.803Z,9.42
2023-03-26T21:06:13.573Z,9.46
2023-03-26T21:08:48.124Z,9.48
2023-03-26T21:11:52.548Z,9.49
2023-03-26T21:14:44.236Z,9.46
2023-03-26T21:17:19.916Z,9.37
2023-03-26T21:19:53.381Z,9.29
2023-03-26T21:22:40.720Z,9.24
2023-03-26T21:25:24.433Z,9.20
2023-03-26T21:28:39.719Z,9.13
2023-03-26T21:31:07.938Z,9.05
2023-03-26T21:33:41.280Z,8.99
2023-03-26T21:36:14.346Z,8.94
2023-03-26T21:38:48.285Z,8.93
2023-03-26T21:41:49.140Z,8.96
2023-03-26T21:44:23.638Z,9.00
2023-03-26T21:46:56.291Z,9.03
2023-03-26T21:49:29.940Z,9.05
2023-03-26T21:52:02.761Z,9.07
2023-03-26T21:54:35.552Z,9.07
2023-03-26T21:57:49.481Z,9.06
2023-03-26T22:00:33.580Z,9.07
2023-03-26T22:03:34.402Z,9.07
2023-03-26T22:06:20.352Z,9.05
2023-03-26T22:08:53.593Z,9.03
2023-03-26T22:11:26.298Z,8.97
2023-03-26T22:13:59.503Z,8.92
2023-03-26T22:16:32.457Z,8.89
2023-03-26T22:19:06.393Z,8.91
2023-03-26T22:21:39.047Z,8.94
2023-03-26T22:24:11.690Z,8.94
2023-03-26T22:26:45.250Z,8.95
2023-03-26T22:29:21.515Z,8.91
2023-03-26T22:31:54.043Z,8.84
2023-03-26T22:34:26.396Z,8.80
2023-03-26T22:36:58.946Z,8.78
2023-03-26T22:39:32.152Z,8.78
2023-03-26T22:44:58.194Z,8.75
2023-03-26T22:47:32.447Z,8.72
2023-03-26T22:50:15.896Z,8.74
2023-03-26T22:52:49.526Z,8.70
2023-03-26T22:55:29.044Z,8.63
2023-03-26T22:57:57.929Z,8.59
2023-03-26T23:00:30.910Z,8.56
2023-03-26T23:03:04.658Z,8.54
2023-03-26T23:05:37.995Z,8.54
2023-03-26T23:08:11.956Z,8.50
2023-03-26T23:10:44.423Z,8.44
2023-03-26T23:13:17.709Z,8.37
2023-03-26T23:15:53.082Z,8.30
2023-03-26T23:18:25.487Z,8.26
2023-03-26T23:20:58.848Z,8.26
2023-03-26T23:23:34.476Z,8.21
2023-03-26T23:26:08.696Z,8.22
2023-03-26T23:28:42.402Z,8.27
2023-03-26T23:31:14.978Z,8.36
2023-03-26T23:33:47.745Z,8.39
2023-03-26T23:36:21.283Z,8.38
2023-03-26T23:38:54.599Z,8.35
2023-03-26T23:41:27.831Z,8.35
2023-03-26T23:44:01.685Z,8.32
2023-03-26T23:46:34.860Z,8.28
2023-03-26T23:49:07.502Z,8.24
2023-03-26T23:51:42.403Z,8.22
2023-03-26T23:54:15.419Z,8.18
2023-03-26T23:56:49.407Z,8.18
2023-03-26T23:59:23.304Z,8.18
